EGJJ Airport Information

Runway Information
Runway 08 Length 5597 ft width 148 ft Elevation 270 ft Threshold 200 ft Heading 83
Runway 26 Length 5597 ft Width 148 ft Elevation 271 ft Threshold 299 ft Heading 263
Airport Frequencies
Type APP Name APP Frequency 120.3 MHZ
Type ATIS Name INFO Frequency 112.2 MHZ
Type GND Name GND Frequency 121.9 MHZ
Type RDR Name RDR Frequency 118.55 MHZ
Type TWR Name TWR Frequency 119.45 MHZ
Airport Navaids
Type VOR-DME Name Jersey Frequency 112200 KHZ
Airport Weather Information & NOTAM
ADDS - METARS form results

(1758 UTC 05 February 2023)
Data provider http://aviationweather.gov/metar/data/
 
METAR text: EGJJ 051750Z 08009KT 9999 FEW019 06/02 Q1044
Conditions at: EGJJ (JERSEY AIRPORT , JE) observed 1750 UTC 05 February 2023
Temperature: 6.0°C (43°F)
Dewpoint: 2.0°C (36°F) [RH = 75%]
Pressure (altimeter): 30.83 inches Hg (1044.0 mb)
Winds: from the E (80 degrees) at 10 MPH (9 knots; 4.6 m/s)
Visibility: 6 or more miles (10+ km)
Ceiling: at least 12,000 feet AGL
Clouds: few clouds at 1900 feet AGL
Weather: no significant weather observed at this time

METAR text: EGJJ 051720Z 07007KT 9999 FEW020 06/02 Q1044
Conditions at: EGJJ (JERSEY AIRPORT , JE) observed 1720 UTC 05 February 2023
Temperature: 6.0°C (43°F)
Dewpoint: 2.0°C (36°F) [RH = 75%]
Pressure (altimeter): 30.83 inches Hg (1044.0 mb)
Winds: from the ENE (70 degrees) at 8 MPH (7 knots; 3.6 m/s)
Visibility: 6 or more miles (10+ km)
Ceiling: at least 12,000 feet AGL
Clouds: few clouds at 2000 feet AGL
Weather: no significant weather observed at this time

Forecast for: AMD
Text: TAF AMD EGJJ 051658Z 0518/0603 07010KT 9999 FEW018
Forecast period: 1800 UTC 05 February 2023 to 0300 UTC 06 February 2023
Forecast type: FROM: standard forecast or significant change
Winds: from the ENE (70 degrees) at 12 MPH (10 knots; 5.1 m/s)
Visibility: 6 or more miles (10+ km)
Ceiling: at least 12,000 feet AGL
Clouds: few clouds at 1800 feet AGL
Weather: no significant weather forecast for this period